x

Buoy I01 - Eastern Maine Shelf (44034) Wave Buoy

10:04pm - Thu 24th Apr 2014 All times are EDT. -4 hours from GMT.

  • Sig Wave height 4.9ft
  • Peak Period 4s
  • Wind
    29mph, 34mph gusts
  • Sea Temp 41°f
  • Air Temp 38°f
  • Sea Pressure 1008.1mb
  • Buoy I01 - Eastern Maine Shelf
  • Buoy I01 - Eastern Maine Shelf

More Historic Weather Station data

Upgrade to MSW Pro to gain access to the past 30 days of data for over 8000 Wavebouys and Weather Stations around the globe.

Join Pro

Comparision Forecast

View Surf forecast
   
Thu 04/24 10:04pm 5ft 4s 29 34 mph 1008.1mb 41f 38f
9:04pm 5ft 5s 25 31 mph 1007mb 40f 40f
8:04pm 5ft 5s 25 31 mph 1006.1mb 41f 39f
7:04pm 4.5ft 5s 25 31 mph 1004.1mb 40f 42f
6:04pm  -   -  27 34 mph 1002.7mb - 42f
5:04pm 5ft 5s 29 36 mph 1001.5mb 40f 42f
4:04pm 4.5ft 5s 25 31 mph 1000.5mb 40f 42f
3:04pm 4.5ft 5s 25 31 mph 999.6mb 40f 42f
2:04pm 4.5ft 5s 25 31 mph 998.8mb 40f 42f
1:04pm 4.5ft 5s 27 31 mph 998.5mb 40f 41f
12:04pm 5ft 5s 29 36 mph 997.6mb 40f 40f
11:04am 5ft 5s 29 38 mph 997.1mb 40f 39f
10:04am 5ft 5s 29 36 mph 996.4mb 40f 39f
9:04am 5ft 5s 29 34 mph 996mb 40f 39f
8:04am 4.5ft 5s 27 34 mph 995.5mb 40f 39f
7:04am 5.5ft 5s 29 38 mph 994.9mb 40f 39f
6:04am 5.5ft 5s 29 38 mph 994.9mb 40f 39f
5:04am 6ft 5s 31 38 mph 994.1mb 40f 39f
4:04am 5.5ft 5s 29 38 mph 993.9mb 40f 39f
3:04am 5ft 5s 27 34 mph 994.1mb 40f 39f
2:04am 5ft 5s 34 40 mph 993.6mb 40f 38f
1:04am 5ft 5s 27 34 mph 994.6mb 40f 38f
12:04am 4.5ft 5s 31 38 mph 994.1mb 40f 40f
Wed 04/23 11:04pm 4.5ft 4s 29 36 mph 994mb 41f 40f
10:04pm 4.5ft 5s 34 45 mph 994.9mb 41f 41f
9:04pm 4.5ft 4s 27 34 mph 995.2mb 41f 41f
8:04pm 4ft 8s 27 31 mph 994.7mb 41f 43f
7:04pm 3.5ft 8s 18 20 mph 994.4mb 41f 44f
6:04pm 3ft 8s 13 20 mph 994.6mb 41f 46f
5:04pm 3ft 8s 13 18 mph 993.3mb 41f 43f
4:04pm 3.5ft 8s 9 11 mph 993.6mb 42f 43f
3:04pm 3.5ft 8s 2 4 mph 994.4mb 42f 43f
2:04pm 3.5ft 8s  -  2 mph 995.3mb 42f 43f
1:04pm 3.5ft 8s 2
mph
995.9mb 42f 43f
12:04pm 3.5ft 8s 2
mph
996mb 42f 44f
11:04am 3.5ft 6s 2
mph
996mb 41f 43f
10:04am 3.5ft 5s 2 4 mph 996mb 41f 42f
9:04am 3.5ft 6s 2 4 mph 996.1mb 41f 42f
8:04am 3.5ft 5s 9
mph
996.1mb 41f 43f
7:04am 4ft 8s 7 9 mph 996.1mb 41f 42f
6:04am 4ft 8s 11 13 mph 995.8mb 41f 43f
5:04am 4ft 8s 11 13 mph 995.6mb 41f 43f
4:04am 3.5ft 4s 11 13 mph 996.1mb 41f 43f
3:04am 2.5ft 5s 13 16 mph 996.6mb 41f 44f
2:04am 4ft 8s 16 18 mph 997.3mb 41f 44f
1:04am 3.5ft 8s 13 16 mph 998.2mb 41f 44f
12:04am 3.5ft 8s 13 16 mph 998.9mb 41f 44f
Tue 04/22 11:04pm 4ft 8s 13 16 mph 999.4mb 41f 44f
10:04pm 3.5ft 8s 16 20 mph 1000mb 41f 44f
9:04pm 3.5ft 8s 16 18 mph 1000.3mb 42f 45f
8:04pm 3.5ft 8s 13 16 mph 1000.7mb 42f 44f
7:04pm 2.5ft 5s 13 18 mph 1000.8mb 42f 44f
6:04pm 3.5ft 8s 11 13 mph 1001.2mb 42f 44f
5:04pm 3ft 8s 11 13 mph 1001.3mb 42f 44f
4:04pm 3.5ft 8s 9
mph
1002.2mb 42f 44f
3:04pm 3.5ft 5s 9 11 mph 1003mb 42f 44f
2:04pm 3.5ft 5s 11 13 mph 1003.8mb 41f 44f
1:04pm  -   -  7 9 mph 1004.3mb 41f 43f
12:04pm 3.5ft 5s 11 13 mph 1004.9mb 41f 43f
11:04am 3ft 5s 9
mph
1005.2mb 41f 43f
10:04am 2.5ft 5s 7
mph
1006mb 41f 42f
9:04am 2.5ft 5s 7
mph
1006.1mb 41f 42f
8:04am 2.5ft 5s 4 7 mph 1006.8mb 41f 41f
7:04am 2.5ft 5s 2 4 mph 1006.9mb 41f 42f
6:04am 3ft 5s 4
mph
1006.7mb 40f 41f
5:04am 2.5ft 5s 9
mph
1006.7mb 40f 42f
4:04am 2.5ft 5s 11 13 mph 1007.1mb 40f 42f
3:04am 3ft 5s 11 13 mph 1007.6mb 40f 42f
2:04am 3ft 4s 9
mph
1008.2mb 40f 42f
1:04am 3.5ft 5s 9
mph
1009.4mb 40f 42f
12:04am 3.5ft 5s 7
mph
1010.3mb 40f 42f
Mon 04/21 11:04pm 3.5ft 5s 7 9 mph 1010.8mb 40f 42f
10:04pm 4.5ft 5s 7 9 mph 1011.5mb 40f 42f
9:04pm 4ft 5s 9 11 mph 1012mb 40f 42f
8:04pm 3.5ft 5s 9 11 mph 1012mb 40f 42f
7:04pm 3.5ft 5s 7 9 mph 1012.5mb 40f 42f
6:04pm 3.5ft 5s 16 18 mph 1012.7mb 40f 42f
5:04pm 3ft 5s 13 18 mph 1013.5mb 40f 42f
4:04pm 2.5ft 5s 13 16 mph 1014.3mb 40f 42f
3:04pm 3.5ft 5s 18 22 mph 1015mb 40f 42f
2:04pm 3.5ft 5s 16 20 mph 1016.6mb 40f 41f
1:04pm 3.5ft 5s 16 18 mph 1018mb 40f 41f
12:04pm 3.5ft 5s 16 18 mph 1019.5mb 40f 41f
11:04am 3.5ft 5s 16 18 mph 1020.3mb 40f 41f
10:04am 3ft 5s 18 20 mph 1020.7mb 40f 41f
9:04am 3ft 4s 16 20 mph 1021.1mb 40f 41f
8:04am 2.5ft 5s 16 18 mph 1021.8mb 40f 41f
7:04am 2ft 4s 13 16 mph 1022.3mb 40f 41f
6:04am 2.5ft 4s 11 16 mph 1022.5mb 40f 40f
5:04am 2ft 4s 13 16 mph 1022.4mb 40f 40f
4:04am 2ft 4s 13 16 mph 1023mb 40f 40f